x

Gulf Of Maine - 78 Nm East Of Portsmouth, Nh (44005) Wave Buoy

9:50am - Thu 8th Dec 2016 All times are EST. -5 hours from GMT.

  • Sig Wave height 3.6ft
  • Swell Direction
  • Peak Period 10s
  • Average Period 6s
  • Wind
    16mph, 20mph gusts
  • Sea Temp 50°f
  • 空気 Temp 43°f
  • Sea Pressure 1011.7mb
  • Gulf Of Maine - 78 Nm East Of Portsmouth, Nh
  • Gulf Of Maine - 78 Nm East Of Portsmouth, Nh

More Historic Weather Station data

Upgrade to MSW Pro to gain access to the past 30 days of data for over 8000 Wavebouys and Weather Stations around the globe.

Join Pro

Comparision Forecast

View Surf forecast
   
Thu 12/08 9:50am 3.5ft 10s 6s 16 20 mph 1011.7mb 50f 43f
8:50am 3ft 10s 6s 11 18 mph 1011.8mb 50f 43f
7:50am 3ft 11s 6s 9 13 mph 1011.9mb 50f 42f
6:50am 3ft 11s 5s 11 13 mph 1012.2mb 50f 42f
5:50am 2.5ft 11s 5s 11 13 mph 1012.2mb 50f 43f
4:50am 2.5ft 4s 4s 11 16 mph 1012.3mb 50f 43f
3:50am 2.5ft 4s 4s 16 20 mph 1012.7mb 50f 43f
2:50am 2.5ft 4s 4s 16 20 mph 1012.9mb 50f 43f
Wed 12/07 10:50pm 2.5ft 8s 4s 16 20 mph 1014.8mb 50f 44f
9:50pm 2.5ft 10s 5s 11 13 mph 1014.3mb 50f 44f
8:50pm 2.5ft 10s 6s 13 20 mph 1014.8mb 50f 45f
7:50pm 2.5ft 9s 7s 11 13 mph 1014.9mb 50f 43f
6:50pm 2.5ft 9s 7s 9 11 mph 1015mb 50f 43f
5:50pm 2.5ft 9s 6s 7 9 mph 1015.1mb 50f 43f
4:50pm 2.5ft 11s 5s 4 7 mph 1014.5mb 50f 43f
3:50pm 2ft 9s 5s 4 7 mph 1014.1mb 50f 42f
2:50pm 2.5ft 11s 5s 4 7 mph 1013.9mb 50f 42f
1:50pm 2ft 11s 5s 2 7 mph 1014.1mb 50f 41f
11:50am 2.5ft 10s 5s 2 4 mph 1015mb 50f 41f
10:50am 2.5ft 9s 5s 7
mph
1015.1mb 50f 41f
9:50am 2.5ft 9s 5s 9 13 mph 1015.6mb 50f 40f
8:50am 2.5ft 11s 5s 9 16 mph 1015.5mb 50f 40f
7:50am 2.5ft 10s 5s 13 16 mph 1014.4mb 50f 40f
6:50am 2.5ft 9s 5s 13 16 mph 1014.4mb 50f 40f
5:50am 3ft 10s 5s 13 16 mph 1014.2mb 50f 39f
4:50am 2.5ft 10s 5s 13 20 mph 1014mb 50f 39f
3:50am 2.5ft 10s 5s 13 18 mph 1014.3mb 50f 39f
2:50am 2.5ft 11s 6s 9 13 mph 1015.7mb 50f 39f
1:50am 2.5ft 10s 6s 9 11 mph 1015.7mb 50f 38f
12:50am 2.5ft 11s 5s 7 11 mph 1015.8mb 50f 38f
Tue 12/06 11:50pm 2.5ft 11s 5s 7 9 mph 1016.3mb 50f 37f
10:50pm 2.5ft 12s 5s 7 9 mph 1017.1mb 50f 37f
9:50pm 2.5ft 11s 5s 11 16 mph 1017.5mb 50f 36f
8:50pm 2.5ft 11s 5s 13 20 mph 1017.1mb 50f 37f
7:50pm 2.5ft 11s 5s 13 16 mph 1017.4mb 50f 36f
6:50pm 2.5ft 11s 5s 13 18 mph 1017.3mb 50f 37f
5:50pm 3ft 11s 5s 11 16 mph 1017.6mb 50f 37f
4:50pm 3.5ft 11s 5s 11 13 mph 1017.8mb 50f 36f
3:50pm 3ft 11s 5s 11 16 mph 1018mb 50f 36f
2:50pm 3.5ft 5s 4s 11 13 mph 1018.3mb 50f 36f
1:50pm 3.5ft 5s 5s 13 18 mph 1018mb 50f 36f
12:50pm 3.5ft 5s 5s 16 20 mph 1018.3mb 50f 36f
11:50am 4ft 5s 5s 16 20 mph 1018.8mb 50f 36f
10:50am 4ft 5s 4s 18 22 mph 1018.9mb 50f 36f
9:50am 4.5ft 5s 5s 18 22 mph 1019.2mb 50f 37f
8:50am 4.5ft 5s 5s 18 25 mph 1018.6mb 50f 37f
7:50am 4.5ft 5s 5s 18 25 mph 1018.3mb 50f 37f
6:50am 5.5ft 5s 5s 20 25 mph 1017.9mb 50f 38f
5:50am 5.5ft 5s 5s 22 25 mph 1017.4mb 50f 38f
4:50am 6.5ft 6s 5s 22 27 mph 1016.4mb 50f 38f
3:50am 6.5ft 6s 5s 25 29 mph 1015.8mb 50f 39f
2:50am 6ft 5s 5s 27 31 mph 1015.1mb 50f 40f
1:50am 5ft 5s 5s 27 34 mph 1014.1mb 50f 40f
12:50am 5ft 5s 5s 25 34 mph 1013.3mb 50f 40f
Mon 12/05 11:50pm 5ft 5s 5s 25 29 mph 1012.5mb 50f 39f
10:50pm 4.5ft 5s 4s 25 27 mph 1012.3mb 50f 39f
9:50pm 4.5ft 4s 4s 22 29 mph 1011.7mb 50f 39f
8:50pm 4ft 5s 4s 25 29 mph 1011.3mb 50f 41f
7:50pm 3.5ft 4s 4s 25 27 mph 1011.4mb 50f 42f
6:50pm 3.5ft 4s 4s 18 22 mph 1011.1mb 50f 43f
5:50pm 3.5ft 4s 4s 16 20 mph 1011.9mb 50f 42f
4:50pm 3.5ft 4s 4s 16 20 mph 1012.5mb 50f 42f
3:50pm 3ft 3s 4s 18 22 mph 1012.7mb 50f 41f
2:50pm 2.5ft 10s 4s 20 22 mph 1012.6mb 50f 40f
1:50pm 2ft 10s 4s 16 20 mph 1013.2mb 50f 40f
12:50pm 1.6ft 9s 5s 13 16 mph 1014.1mb 50f 40f
11:50am 1.6ft 10s 6s 11 16 mph 1015.6mb 50f 39f
10:50am 2ft 9s 6s 9 11 mph 1016.9mb 50f 39f
9:50am 2ft 8s 6s 7 11 mph 1018.1mb 50f 39f
8:50am 2ft 9s 5s 4 7 mph 1018.9mb 50f 38f
7:50am 2ft 8s 5s 4 7 mph 1019.1mb 50f 38f
6:50am 2ft 9s 5s 4 11 mph 1019.4mb 50f 37f
5:50am 2ft 4s 4s 4 9 mph 1019.9mb 50f 37f
4:50am 2ft 4s 4s  -  2 mph 1019.5mb 50f 36f
3:50am 2ft 5s 4s 2 4 mph 1020.3mb 50f 35f
2:50am 2.5ft 4s 4s 4 7 mph 1020mb 50f 35f
1:50am 2.5ft 4s 4s 7 9 mph 1020.8mb 50f 35f
12:50am 2.5ft 5s 4s 9 11 mph 1020.6mb 50f 35f
Sun 12/04 11:50pm 3.5ft 5s 4s 11 18 mph 1020.6mb 50f 35f
10:50pm 3.5ft 5s 4s 11 16 mph 1021.5mb 50f 35f
9:50pm 4ft 5s 4s 13 18 mph 1022.1mb 50f 36f
8:50pm 4ft 5s 4s 18 22 mph 1022mb 50f 36f
7:50pm 4ft 5s 4s 18 22 mph 1021.4mb 50f 37f
6:50pm 4ft 5s 4s 18 22 mph 1021.1mb 50f 38f
5:50pm 4ft 5s 4s 20 25 mph 1020.9mb 50f 39f
4:50pm 3.5ft 5s 4s 18 22 mph 1020.7mb 50f 39f